createdAt,value
2023-02-28T00:03:24.904Z,1.60
2023-02-28T00:05:56.829Z,1.60
2023-02-28T00:08:29.866Z,1.60
2023-02-28T00:11:13.745Z,1.60
2023-02-28T00:13:48.312Z,1.70
2023-02-28T00:16:22.963Z,1.70
2023-02-28T00:18:55.568Z,1.80
2023-02-28T00:24:00.799Z,1.80
2023-02-28T00:26:32.700Z,1.70
2023-02-28T00:29:05.358Z,1.70
2023-02-28T00:31:37.244Z,1.80
2023-02-28T00:34:10.212Z,1.70
2023-02-28T00:36:46.258Z,1.80
2023-02-28T00:39:18.851Z,1.90
2023-02-28T00:41:50.760Z,1.80
2023-02-28T00:44:23.389Z,1.20
2023-02-28T00:46:56.453Z,1.90
2023-02-28T00:49:30.543Z,1.90
2023-02-28T00:52:02.506Z,2.00
2023-02-28T00:57:07.495Z,1.80
2023-02-28T00:59:40.049Z,1.90
2023-02-28T01:07:17.533Z,2.90
2023-02-28T01:09:50.460Z,1.80
2023-02-28T01:12:22.346Z,1.90
2023-02-28T01:14:54.979Z,1.90
2023-02-28T01:17:27.497Z,1.90
2023-02-28T01:22:32.116Z,1.80
2023-02-28T01:25:05.171Z,1.80
2023-02-28T01:27:37.240Z,1.80
2023-02-28T01:30:11.192Z,1.80
2023-02-28T01:32:43.428Z,1.80
2023-02-28T01:35:15.370Z,1.80
2023-02-28T01:37:47.926Z,1.90
2023-02-28T01:42:52.879Z,1.90
2023-02-28T01:45:30.568Z,1.90
2023-02-28T01:48:08.990Z,1.90
2023-02-28T01:50:44.940Z,1.80
2023-02-28T01:53:30.855Z,1.80
2023-02-28T01:56:08.079Z,1.80
2023-02-28T01:58:41.211Z,1.90
2023-02-28T02:01:22.612Z,1.80
2023-02-28T02:04:00.161Z,1.70
2023-02-28T02:06:41.642Z,1.80
2023-02-28T02:09:16.299Z,1.80
2023-02-28T02:11:48.517Z,1.90
2023-02-28T02:14:38.864Z,1.80
2023-02-28T02:17:35.334Z,1.80
2023-02-28T02:20:23.720Z,1.80
2023-02-28T02:23:20.233Z,1.80
2023-02-28T02:26:13.255Z,1.80
2023-02-28T02:29:34.355Z,1.70
2023-02-28T02:32:50.029Z,1.60
2023-02-28T02:36:08.784Z,1.70
2023-02-28T02:38:55.360Z,1.80
2023-02-28T02:41:54.773Z,1.80
2023-02-28T02:44:46.058Z,1.80
2023-02-28T02:47:22.652Z,1.80
2023-02-28T02:49:58.991Z,1.90
2023-02-28T02:52:46.453Z,1.80
2023-02-28T02:55:21.942Z,1.70
2023-02-28T02:58:09.105Z,1.70
2023-02-28T03:00:48.307Z,1.70
2023-02-28T03:03:29.956Z,1.80
2023-02-28T03:06:04.500Z,1.90
2023-02-28T03:08:39.451Z,1.90
2023-02-28T03:11:15.881Z,1.80
2023-02-28T03:14:31.179Z,1.80
2023-02-28T03:17:41.352Z,1.80
2023-02-28T03:21:19.035Z,1.70
2023-02-28T03:24:11.775Z,1.80
2023-02-28T03:26:51.905Z,1.70
2023-02-28T03:29:34.788Z,1.80
2023-02-28T03:35:23.215Z,1.80
2023-02-28T03:38:07.980Z,1.70
2023-02-28T03:40:48.910Z,1.70
2023-02-28T03:43:27.400Z,1.70
2023-02-28T03:46:05.147Z,1.60
2023-02-28T03:48:54.413Z,1.60
2023-02-28T03:51:29.474Z,1.60
2023-02-28T03:54:11.200Z,1.60
2023-02-28T03:57:04.517Z,1.60
2023-02-28T03:59:43.527Z,1.60
2023-02-28T04:02:16.316Z,1.50
2023-02-28T04:04:49.617Z,1.50
2023-02-28T04:07:22.797Z,1.50
2023-02-28T04:09:54.715Z,1.50
2023-02-28T04:12:27.587Z,1.60
2023-02-28T04:14:59.494Z,1.60
2023-02-28T04:17:32.122Z,1.50
2023-02-28T04:20:10.115Z,1.50
2023-02-28T04:22:42.687Z,1.50
2023-02-28T04:25:15.744Z,1.40
2023-02-28T04:27:48.328Z,1.50
2023-02-28T04:30:20.296Z,1.40
2023-02-28T04:32:52.952Z,1.40
2023-02-28T04:35:24.947Z,1.40
2023-02-28T04:37:57.599Z,1.40
2023-02-28T04:40:29.728Z,1.40
2023-02-28T04:43:02.276Z,1.30
2023-02-28T04:48:07.526Z,1.10
2023-02-28T04:50:39.426Z,1.10
2023-02-28T04:53:12.013Z,1.00
2023-02-28T04:55:44.026Z,1.00
2023-02-28T04:58:16.605Z,1.00
2023-02-28T05:00:48.492Z,1.00
2023-02-28T05:03:23.405Z,1.00
2023-02-28T05:05:55.291Z,0.90
2023-02-28T05:08:27.902Z,0.90
2023-02-28T05:11:01.784Z,0.90
2023-02-28T05:13:34.338Z,0.90
2023-02-28T05:16:06.896Z,0.90
2023-02-28T05:21:27.976Z,3.80
2023-02-28T05:24:07.041Z,2.20
2023-02-28T05:26:42.884Z,1.50
2023-02-28T05:29:15.488Z,1.20
2023-02-28T05:31:48.240Z,1.10
2023-02-28T05:34:21.333Z,1.00
2023-02-28T05:36:53.266Z,0.90
2023-02-28T05:41:58.282Z,0.90
2023-02-28T05:44:31.009Z,0.90
2023-02-28T05:47:03.378Z,0.90
2023-02-28T05:54:41.760Z,0.70
2023-02-28T05:57:22.860Z,0.70
2023-02-28T05:59:57.115Z,0.60
2023-02-28T06:02:29.243Z,0.50
2023-02-28T06:10:08.140Z,0.40
2023-02-28T06:15:16.909Z,0.40
2023-02-28T06:17:48.956Z,0.40
2023-02-28T06:20:21.557Z,0.40
2023-02-28T06:22:55.408Z,0.50
2023-02-28T06:25:29.042Z,0.50
2023-02-28T06:28:01.022Z,0.50
2023-02-28T06:30:35.077Z,0.50
2023-02-28T06:35:40.032Z,0.50
2023-02-28T06:40:46.372Z,0.50
2023-02-28T06:43:18.300Z,0.50
2023-02-28T06:45:51.396Z,0.50
2023-02-28T06:48:24.408Z,0.50
2023-02-28T06:51:11.722Z,0.50
2023-02-28T06:56:19.156Z,0.60
2023-02-28T06:58:54.111Z,0.60
2023-02-28T07:01:26.368Z,0.60
2023-02-28T07:03:59.025Z,0.70
2023-02-28T07:06:31.014Z,0.70
2023-02-28T07:09:05.299Z,0.80
2023-02-28T07:11:37.234Z,0.80
2023-02-28T07:14:10.027Z,0.80
2023-02-28T07:16:41.987Z,0.80
2023-02-28T07:19:14.548Z,0.80
2023-02-28T07:21:46.457Z,0.80
2023-02-28T07:24:19.358Z,0.80
2023-02-28T07:26:51.248Z,0.90
2023-02-28T07:29:24.063Z,0.80
2023-02-28T07:31:56.088Z,0.90
2023-02-28T07:34:28.693Z,0.90
2023-02-28T07:39:37.292Z,1.10
2023-02-28T07:42:12.257Z,1.20
2023-02-28T07:44:45.235Z,1.40
2023-02-28T07:47:17.179Z,1.40
2023-02-28T07:52:24.267Z,1.60
2023-02-28T07:54:56.864Z,1.70
2023-02-28T07:57:28.810Z,1.80
2023-02-28T08:02:43.925Z,1.90
2023-02-28T08:05:16.016Z,1.90
2023-02-28T08:07:50.936Z,2.00
2023-02-28T08:10:23.300Z,2.00
2023-02-28T08:12:55.913Z,1.90
2023-02-28T08:18:00.901Z,2.10
2023-02-28T08:20:32.850Z,2.30
2023-02-28T08:25:37.852Z,2.60
2023-02-28T08:28:10.438Z,3.10
2023-02-28T08:30:42.489Z,4.30
2023-02-28T08:33:15.103Z,3.60
2023-02-28T08:35:47.026Z,3.10
2023-02-28T08:38:19.659Z,3.00
2023-02-28T08:40:59.636Z,3.00
2023-02-28T08:43:32.682Z,2.90
2023-02-28T08:46:11.792Z,2.90
2023-02-28T08:51:22.408Z,3.10
2023-02-28T08:53:59.470Z,3.40
2023-02-28T08:56:31.709Z,3.60
2023-02-28T08:59:04.375Z,3.40
2023-02-28T09:01:37.579Z,3.80
2023-02-28T09:04:13.283Z,3.70
2023-02-28T09:06:49.594Z,3.90
2023-02-28T09:09:21.900Z,4.60
2023-02-28T09:11:56.761Z,4.40
2023-02-28T09:14:29.102Z,4.70
2023-02-28T09:17:01.588Z,5.30
2023-02-28T09:22:06.645Z,6.60
2023-02-28T09:27:17.169Z,7.80
2023-02-28T09:29:49.157Z,8.40
2023-02-28T09:37:31.858Z,8.40
2023-02-28T09:40:04.829Z,8.40
2023-02-28T09:42:37.095Z,9.30
2023-02-28T09:45:28.354Z,8.80
2023-02-28T09:48:08.139Z,9.20
2023-02-28T09:50:53.174Z,8.80
2023-02-28T09:53:37.380Z,8.90
2023-02-28T09:56:27.521Z,8.50
2023-02-28T09:59:33.306Z,8.10
2023-02-28T10:02:22.796Z,9.40
2023-02-28T10:05:08.022Z,9.20
2023-02-28T10:10:26.921Z,9.70
2023-02-28T10:13:02.571Z,9.70
2023-02-28T10:15:36.433Z,9.20
2023-02-28T10:18:18.088Z,9.10
2023-02-28T10:20:51.316Z,8.90
2023-02-28T10:26:14.157Z,9.40
2023-02-28T10:28:47.171Z,9.10
2023-02-28T10:31:20.781Z,7.70
2023-02-28T10:33:53.401Z,9.10
2023-02-28T10:39:01.542Z,9.40
2023-02-28T10:44:24.281Z,9.70
2023-02-28T10:46:57.629Z,10.20
2023-02-28T10:49:30.689Z,9.90
2023-02-28T10:52:02.648Z,9.60
2023-02-28T10:54:39.135Z,9.60
2023-02-28T10:57:21.829Z,9.00
2023-02-28T11:00:15.218Z,9.20
2023-02-28T11:02:47.483Z,9.60
2023-02-28T11:05:30.702Z,9.90
2023-02-28T11:08:16.983Z,9.10
2023-02-28T11:10:56.952Z,9.60
2023-02-28T11:13:39.153Z,10.00
2023-02-28T11:16:14.707Z,10.10
2023-02-28T11:18:57.226Z,9.70
2023-02-28T11:21:35.826Z,9.30
2023-02-28T11:24:31.276Z,9.40
2023-02-28T11:27:03.815Z,9.40
2023-02-28T11:29:41.286Z,10.00
2023-02-28T11:32:21.647Z,10.00
2023-02-28T11:35:12.661Z,10.60
2023-02-28T11:37:46.837Z,10.20
2023-02-28T11:40:47.501Z,10.50
2023-02-28T11:44:16.835Z,9.80
2023-02-28T11:46:53.213Z,8.50
2023-02-28T11:49:43.930Z,8.10
2023-02-28T11:52:55.223Z,8.20
2023-02-28T11:55:40.298Z,6.90
2023-02-28T11:58:32.744Z,6.70
2023-02-28T12:01:35.693Z,6.20
2023-02-28T12:04:37.858Z,7.10
2023-02-28T12:07:56.344Z,7.20
2023-02-28T12:10:36.541Z,7.10
2023-02-28T12:13:50.103Z,6.70
2023-02-28T12:16:46.803Z,6.80
2023-02-28T12:19:34.496Z,6.50
2023-02-28T12:22:31.443Z,6.50
2023-02-28T12:25:23.713Z,6.30
2023-02-28T12:27:56.311Z,6.30
2023-02-28T12:30:44.692Z,6.30
2023-02-28T12:33:23.115Z,6.40
2023-02-28T12:36:03.455Z,6.50
2023-02-28T12:38:47.985Z,6.80
2023-02-28T12:41:53.924Z,6.40
2023-02-28T12:44:49.367Z,5.90
2023-02-28T12:47:21.380Z,6.40
2023-02-28T12:50:08.150Z,5.40
2023-02-28T12:53:04.850Z,5.50
2023-02-28T12:55:55.585Z,5.60
2023-02-28T12:58:37.403Z,5.20
2023-02-28T13:01:29.328Z,5.50
2023-02-28T13:04:47.480Z,6.20
2023-02-28T13:07:56.512Z,6.50
2023-02-28T13:10:42.297Z,6.90
2023-02-28T13:13:21.673Z,7.20
2023-02-28T13:16:08.998Z,7.00
2023-02-28T13:18:46.225Z,6.90
2023-02-28T13:21:30.484Z,6.80
2023-02-28T13:24:05.396Z,6.60
2023-02-28T13:26:37.843Z,6.50
2023-02-28T13:29:16.799Z,6.50
2023-02-28T13:32:31.609Z,6.80
2023-02-28T13:35:06.778Z,6.90
2023-02-28T13:37:45.164Z,6.90
2023-02-28T13:40:40.954Z,6.80
2023-02-28T13:43:22.585Z,6.50
2023-02-28T13:46:14.366Z,6.30
2023-02-28T13:51:44.539Z,6.40
2023-02-28T13:55:12.719Z,6.60
2023-02-28T14:00:44.072Z,6.50
2023-02-28T14:03:38.892Z,6.30
2023-02-28T14:06:33.702Z,6.40
2023-02-28T14:09:27.119Z,6.60
2023-02-28T14:12:56.050Z,6.60
2023-02-28T14:15:39.418Z,5.70
2023-02-28T14:18:27.065Z,6.30
2023-02-28T14:21:08.935Z,6.60
2023-02-28T14:23:56.857Z,6.60
2023-02-28T14:26:57.176Z,6.70
2023-02-28T14:29:50.980Z,6.80
2023-02-28T14:32:56.603Z,6.90
2023-02-28T14:35:41.482Z,7.00
2023-02-28T14:38:25.198Z,6.70
2023-02-28T14:41:02.223Z,6.70
2023-02-28T14:46:08.107Z,6.60
2023-02-28T14:51:19.849Z,6.80
2023-02-28T14:54:00.957Z,6.80
2023-02-28T14:56:39.965Z,6.60
2023-02-28T14:59:34.851Z,6.50
2023-02-28T15:02:26.336Z,6.40
2023-02-28T15:05:02.214Z,6.50
2023-02-28T15:10:26.057Z,6.80
2023-02-28T15:13:03.663Z,6.40
2023-02-28T15:16:02.256Z,6.40
2023-02-28T15:19:00.510Z,5.90
2023-02-28T15:21:39.688Z,5.60
2023-02-28T15:24:44.557Z,5.60
2023-02-28T15:27:27.842Z,5.40
2023-02-28T15:30:06.696Z,5.40
2023-02-28T15:32:41.180Z,5.30
2023-02-28T15:35:32.545Z,5.30
2023-02-28T15:38:27.426Z,5.50
2023-02-28T15:41:00.640Z,5.60
2023-02-28T15:43:36.120Z,5.70
2023-02-28T15:46:15.533Z,5.70
2023-02-28T15:48:57.694Z,5.80
2023-02-28T15:51:37.800Z,5.60
2023-02-28T15:54:21.638Z,5.60
2023-02-28T15:56:57.852Z,5.80
2023-02-28T15:59:31.513Z,5.80
2023-02-28T16:02:22.524Z,5.70
2023-02-28T16:05:17.871Z,5.70
2023-02-28T16:07:50.219Z,5.70
2023-02-28T16:10:26.100Z,5.50
2023-02-28T16:12:59.318Z,5.50
2023-02-28T16:15:43.235Z,5.50
2023-02-28T16:18:15.902Z,5.30
2023-02-28T16:23:20.851Z,5.30
2023-02-28T16:25:53.120Z,5.20
2023-02-28T16:28:32.463Z,2.10
2023-02-28T16:31:07.875Z,5.20
2023-02-28T16:33:40.469Z,5.20
2023-02-28T16:36:28.588Z,5.20
2023-02-28T16:39:02.887Z,5.10
2023-02-28T16:41:35.825Z,5.10
2023-02-28T16:44:15.785Z,5.00
2023-02-28T16:46:47.740Z,4.80
2023-02-28T16:49:20.408Z,4.90
2023-02-28T16:51:52.351Z,4.80
2023-02-28T16:54:25.055Z,4.70
2023-02-28T16:56:57.421Z,4.80
2023-02-28T16:59:30.391Z,4.70
2023-02-28T17:02:03.070Z,4.60
2023-02-28T17:04:35.063Z,4.50
2023-02-28T17:07:14.502Z,4.40
2023-02-28T17:09:46.948Z,4.30
2023-02-28T17:12:19.561Z,4.20
2023-02-28T17:14:51.551Z,4.00
2023-02-28T17:17:24.172Z,4.10
2023-02-28T17:19:56.081Z,4.00
2023-02-28T17:22:28.727Z,4.00
2023-02-28T17:25:00.679Z,3.90
2023-02-28T17:27:36.197Z,3.90
2023-02-28T17:30:28.673Z,3.80
2023-02-28T17:33:01.490Z,3.70
2023-02-28T17:35:33.394Z,3.60
2023-02-28T17:38:05.940Z,3.60
2023-02-28T17:45:43.891Z,3.50
2023-02-28T17:48:16.488Z,3.50
2023-02-28T17:50:48.475Z,3.40
2023-02-28T17:53:24.267Z,3.30
2023-02-28T17:55:56.245Z,3.30
2023-02-28T18:03:34.133Z,3.30
2023-02-28T18:06:06.704Z,3.20
2023-02-28T18:11:18.255Z,5.20
2023-02-28T18:13:58.873Z,6.40
2023-02-28T18:16:31.123Z,4.80
2023-02-28T18:19:04.067Z,4.00
2023-02-28T18:21:36.227Z,3.40
2023-02-28T18:24:10.310Z,3.10
2023-02-28T18:26:43.793Z,2.80
2023-02-28T18:29:28.476Z,2.60
2023-02-28T18:32:02.594Z,2.40
2023-02-28T18:37:08.914Z,2.40
2023-02-28T18:39:40.945Z,2.30
2023-02-28T18:42:15.583Z,2.30
2023-02-28T18:44:48.287Z,2.30
2023-02-28T18:49:53.947Z,2.30
2023-02-28T18:52:25.856Z,2.20
2023-02-28T18:55:20.056Z,2.20
2023-02-28T18:57:51.961Z,2.10
2023-02-28T19:00:26.211Z,2.10
2023-02-28T19:02:58.882Z,2.10
2023-02-28T19:05:34.742Z,2.00
2023-02-28T19:08:06.669Z,1.90
2023-02-28T19:10:42.495Z,1.80
2023-02-28T19:13:14.431Z,1.60
2023-02-28T19:15:48.316Z,1.70
2023-02-28T19:20:56.428Z,1.60
2023-02-28T19:23:31.169Z,1.60
2023-02-28T19:26:17.523Z,1.60
2023-02-28T19:28:50.092Z,1.50
2023-02-28T19:31:25.275Z,1.50
2023-02-28T19:33:59.069Z,1.40
2023-02-28T19:36:31.924Z,1.30
2023-02-28T19:39:05.997Z,3.60
2023-02-28T19:41:38.875Z,2.50
2023-02-28T19:44:11.707Z,2.10
2023-02-28T19:46:44.419Z,1.80
2023-02-28T19:49:18.905Z,1.60
2023-02-28T19:51:50.783Z,1.50
2023-02-28T19:54:25.156Z,1.40
2023-02-28T19:56:58.439Z,1.20
2023-02-28T19:59:39.511Z,1.20
2023-02-28T20:02:18.687Z,1.20
2023-02-28T20:04:52.210Z,1.10
2023-02-28T20:07:43.033Z,1.30
2023-02-28T20:10:15.016Z,1.10
2023-02-28T20:12:49.399Z,1.10
2023-02-28T20:15:21.290Z,1.10
2023-02-28T20:17:54.203Z,1.10
2023-02-28T20:20:27.506Z,1.10
2023-02-28T20:23:00.678Z,1.00
2023-02-28T20:25:32.841Z,0.90
2023-02-28T20:30:39.573Z,0.90
2023-02-28T20:36:10.558Z,1.00
2023-02-28T20:39:04.578Z,1.00
2023-02-28T20:41:37.437Z,1.00
2023-02-28T20:44:14.094Z,1.00
2023-02-28T20:46:46.110Z,1.00
2023-02-28T20:49:19.206Z,0.90
2023-02-28T20:51:52.439Z,0.80
2023-02-28T20:54:25.209Z,0.90
2023-02-28T20:56:57.344Z,0.80
2023-02-28T20:59:30.206Z,0.90
2023-02-28T21:02:03.410Z,0.90
2023-02-28T21:04:35.320Z,0.90
2023-02-28T21:07:10.590Z,1.00
2023-02-28T21:09:43.232Z,1.10
2023-02-28T21:12:16.018Z,1.10
2023-02-28T21:14:48.993Z,1.10
2023-02-28T21:19:55.361Z,0.90
2023-02-28T21:22:28.158Z,0.90
2023-02-28T21:25:00.492Z,1.00
2023-02-28T21:27:33.051Z,1.00
2023-02-28T21:30:06.097Z,0.80
2023-02-28T21:35:11.534Z,0.70
2023-02-28T21:37:44.520Z,0.70
2023-02-28T21:40:16.960Z,0.70
2023-02-28T21:42:48.983Z,0.80
2023-02-28T21:45:21.758Z,0.70
2023-02-28T21:47:53.665Z,0.70
2023-02-28T21:50:26.445Z,0.60
2023-02-28T21:52:59.013Z,0.70
2023-02-28T21:55:35.476Z,0.60
2023-02-28T21:58:14.156Z,0.50
2023-02-28T22:00:47.086Z,0.40
2023-02-28T22:03:19.050Z,0.50
2023-02-28T22:05:52.215Z,0.40
2023-02-28T22:08:24.121Z,0.40
2023-02-28T22:11:02.587Z,0.30
2023-02-28T22:13:34.483Z,0.40
2023-02-28T22:16:17.122Z,0.30
2023-02-28T22:18:49.303Z,0.30
2023-02-28T22:21:24.572Z,0.30
2023-02-28T22:23:56.908Z,0.30
2023-02-28T22:26:29.190Z,0.40
2023-02-28T22:29:04.820Z,0.40
2023-02-28T22:31:37.591Z,0.40
2023-02-28T22:34:12.341Z,0.20
2023-02-28T22:36:44.318Z,0.20
2023-02-28T22:39:17.215Z,0.30
2023-02-28T22:41:49.122Z,0.20
2023-02-28T22:44:25.587Z,0.20
2023-02-28T22:46:57.497Z,0.10
2023-02-28T22:49:30.271Z,0.10
2023-02-28T22:52:02.251Z,0.10
2023-02-28T22:54:36.652Z,0.00
2023-02-28T22:57:08.960Z,0.10
2023-02-28T22:59:41.858Z,0.00
2023-02-28T23:04:46.849Z,0.10
2023-02-28T23:07:18.765Z,0.10
2023-02-28T23:09:51.598Z,0.00
2023-02-28T23:12:24.218Z,-0.10
2023-02-28T23:14:56.351Z,0.00
2023-02-28T23:17:32.101Z,0.00
2023-02-28T23:20:04.867Z,0.10
2023-02-28T23:22:37.195Z,0.00
2023-02-28T23:25:09.328Z,0.00
2023-02-28T23:27:42.256Z,-0.10
2023-02-28T23:30:15.616Z,-0.10
2023-02-28T23:33:09.971Z,-0.10
2023-02-28T23:35:43.062Z,-0.10
2023-02-28T23:38:15.001Z,-0.20
2023-02-28T23:40:47.710Z,-0.20
2023-02-28T23:45:57.499Z,-0.30
2023-02-28T23:48:30.279Z,-0.30
2023-02-28T23:51:08.854Z,-0.20
2023-02-28T23:53:43.672Z,-0.10
2023-02-28T23:56:23.489Z,-0.20
2023-02-28T23:58:56.129Z,-0.30
